sensor_id;sensor_type;location;lat;lon;timestamp;temperature;humidity
22827;DHT22;11580;52.562;13.418;2022-09-09T00:01:51;18.50;48.30
22827;DHT22;11580;52.562;13.418;2022-09-09T00:04:28;18.40;48.20
22827;DHT22;11580;52.562;13.418;2022-09-09T00:07:01;18.50;47.60
22827;DHT22;11580;52.562;13.418;2022-09-09T00:09:37;18.40;48.20
22827;DHT22;11580;52.562;13.418;2022-09-09T00:12:14;18.50;48.40
22827;DHT22;11580;52.562;13.418;2022-09-09T00:14:50;18.40;47.80
22827;DHT22;11580;52.562;13.418;2022-09-09T00:17:31;18.40;48.40
22827;DHT22;11580;52.562;13.418;2022-09-09T00:20:09;18.40;49.20
22827;DHT22;11580;52.562;13.418;2022-09-09T00:22:45;18.40;48.30
22827;DHT22;11580;52.562;13.418;2022-09-09T00:25:28;18.40;48.40
22827;DHT22;11580;52.562;13.418;2022-09-09T00:27:59;18.40;48.60
22827;DHT22;11580;52.562;13.418;2022-09-09T00:30:32;18.30;47.60
22827;DHT22;11580;52.562;13.418;2022-09-09T00:33:10;18.30;48.40
22827;DHT22;11580;52.562;13.418;2022-09-09T00:35:44;18.30;48.60
22827;DHT22;11580;52.562;13.418;2022-09-09T00:38:15;18.30;48.30
22827;DHT22;11580;52.562;13.418;2022-09-09T00:40:51;18.20;47.70
22827;DHT22;11580;52.562;13.418;2022-09-09T00:43:26;18.20;49.10
22827;DHT22;11580;52.562;13.418;2022-09-09T00:46:21;18.20;48.50
22827;DHT22;11580;52.562;13.418;2022-09-09T00:49:06;18.20;49.00
22827;DHT22;11580;52.562;13.418;2022-09-09T00:51:48;18.20;48.50
22827;DHT22;11580;52.562;13.418;2022-09-09T00:54:40;18.20;49.40
22827;DHT22;11580;52.562;13.418;2022-09-09T00:57:25;18.20;49.10
22827;DHT22;11580;52.562;13.418;2022-09-09T01:03:08;18.10;48.60
22827;DHT22;11580;52.562;13.418;2022-09-09T01:05:49;18.10;49.00
22827;DHT22;11580;52.562;13.418;2022-09-09T01:08:38;18.10;48.30
22827;DHT22;11580;52.562;13.418;2022-09-09T01:11:21;18.10;49.00
22827;DHT22;11580;52.562;13.418;2022-09-09T01:13:55;18.10;48.80
22827;DHT22;11580;52.562;13.418;2022-09-09T01:16:32;18.10;48.70
22827;DHT22;11580;52.562;13.418;2022-09-09T01:19:00;18.10;48.30
22827;DHT22;11580;52.562;13.418;2022-09-09T01:21:38;18.10;48.40
22827;DHT22;11580;52.562;13.418;2022-09-09T01:24:21;18.10;49.00
22827;DHT22;11580;52.562;13.418;2022-09-09T01:27:13;18.00;48.80
22827;DHT22;11580;52.562;13.418;2022-09-09T01:29:42;18.00;48.40
22827;DHT22;11580;52.562;13.418;2022-09-09T01:32:38;18.00;48.20
22827;DHT22;11580;52.562;13.418;2022-09-09T01:35:12;18.00;49.20
22827;DHT22;11580;52.562;13.418;2022-09-09T01:37:47;18.00;48.50
22827;DHT22;11580;52.562;13.418;2022-09-09T01:40:16;18.00;48.10
22827;DHT22;11580;52.562;13.418;2022-09-09T01:42:45;18.00;48.20
22827;DHT22;11580;52.562;13.418;2022-09-09T01:45:12;17.90;49.10
22827;DHT22;11580;52.562;13.418;2022-09-09T01:47:40;17.90;48.20
22827;DHT22;11580;52.562;13.418;2022-09-09T01:50:28;17.90;48.20
22827;DHT22;11580;52.562;13.418;2022-09-09T01:52:59;17.90;48.10
22827;DHT22;11580;52.562;13.418;2022-09-09T01:55:32;17.90;48.40
22827;DHT22;11580;52.562;13.418;2022-09-09T01:58:13;17.90;48.30
22827;DHT22;11580;52.562;13.418;2022-09-09T02:01:06;17.80;48.80
22827;DHT22;11580;52.562;13.418;2022-09-09T02:03:43;17.80;48.30
22827;DHT22;11580;52.562;13.418;2022-09-09T02:06:25;17.80;48.20
22827;DHT22;11580;52.562;13.418;2022-09-09T02:09:05;17.80;48.50
22827;DHT22;11580;52.562;13.418;2022-09-09T02:11:34;17.80;48.10
22827;DHT22;11580;52.562;13.418;2022-09-09T02:14:23;17.70;48.00
22827;DHT22;11580;52.562;13.418;2022-09-09T02:16:56;17.70;48.40
22827;DHT22;11580;52.562;13.418;2022-09-09T02:19:44;17.70;48.30
22827;DHT22;11580;52.562;13.418;2022-09-09T02:22:24;17.70;48.20
22827;DHT22;11580;52.562;13.418;2022-09-09T02:24:56;17.70;48.30
22827;DHT22;11580;52.562;13.418;2022-09-09T02:27:29;17.60;48.10
22827;DHT22;11580;52.562;13.418;2022-09-09T02:29:59;17.60;48.00
22827;DHT22;11580;52.562;13.418;2022-09-09T02:32:36;17.60;48.40
22827;DHT22;11580;52.562;13.418;2022-09-09T02:35:12;17.60;48.10
22827;DHT22;11580;52.562;13.418;2022-09-09T02:37:43;17.60;48.30
22827;DHT22;11580;52.562;13.418;2022-09-09T02:40:14;17.60;48.20
22827;DHT22;11580;52.562;13.418;2022-09-09T02:42:47;17.60;48.30
22827;DHT22;11580;52.562;13.418;2022-09-09T02:45:21;17.60;48.30
22827;DHT22;11580;52.562;13.418;2022-09-09T02:47:59;17.60;48.50
22827;DHT22;11580;52.562;13.418;2022-09-09T02:50:40;17.60;48.70
22827;DHT22;11580;52.562;13.418;2022-09-09T02:53:16;17.60;48.60
22827;DHT22;11580;52.562;13.418;2022-09-09T02:55:48;17.60;48.70
22827;DHT22;11580;52.562;13.418;2022-09-09T02:58:22;17.50;49.10
22827;DHT22;11580;52.562;13.418;2022-09-09T03:00:59;17.60;48.40
22827;DHT22;11580;52.562;13.418;2022-09-09T03:03:29;17.60;48.70
22827;DHT22;11580;52.562;13.418;2022-09-09T03:05:59;17.60;49.10
22827;DHT22;11580;52.562;13.418;2022-09-09T03:08:27;17.50;48.20
22827;DHT22;11580;52.562;13.418;2022-09-09T03:10:58;17.60;48.40
22827;DHT22;11580;52.562;13.418;2022-09-09T03:13:29;17.50;48.50
22827;DHT22;11580;52.562;13.418;2022-09-09T03:15:58;17.50;48.20
22827;DHT22;11580;52.562;13.418;2022-09-09T03:18:27;17.50;48.20
22827;DHT22;11580;52.562;13.418;2022-09-09T03:20:54;17.50;48.10
22827;DHT22;11580;52.562;13.418;2022-09-09T03:23:23;17.50;48.10
22827;DHT22;11580;52.562;13.418;2022-09-09T03:25:50;17.50;48.10
22827;DHT22;11580;52.562;13.418;2022-09-09T03:28:26;17.50;48.00
22827;DHT22;11580;52.562;13.418;2022-09-09T03:31:03;17.50;48.00
22827;DHT22;11580;52.562;13.418;2022-09-09T03:33:37;17.40;48.40
22827;DHT22;11580;52.562;13.418;2022-09-09T03:36:07;17.40;47.90
22827;DHT22;11580;52.562;13.418;2022-09-09T03:38:36;17.40;48.00
22827;DHT22;11580;52.562;13.418;2022-09-09T03:41:04;17.40;48.00
22827;DHT22;11580;52.562;13.418;2022-09-09T03:43:34;17.40;48.10
22827;DHT22;11580;52.562;13.418;2022-09-09T03:46:05;17.40;48.90
22827;DHT22;11580;52.562;13.418;2022-09-09T03:48:32;17.40;48.40
22827;DHT22;11580;52.562;13.418;2022-09-09T03:51:00;17.30;48.10
22827;DHT22;11580;52.562;13.418;2022-09-09T03:53:31;17.30;48.20
22827;DHT22;11580;52.562;13.418;2022-09-09T03:55:59;17.30;48.20
22827;DHT22;11580;52.562;13.418;2022-09-09T03:58:28;17.30;48.20
22827;DHT22;11580;52.562;13.418;2022-09-09T04:01:05;17.30;49.00
22827;DHT22;11580;52.562;13.418;2022-09-09T04:03:35;17.30;48.60
22827;DHT22;11580;52.562;13.418;2022-09-09T04:06:04;17.30;48.40
22827;DHT22;11580;52.562;13.418;2022-09-09T04:08:33;17.30;48.50
22827;DHT22;11580;52.562;13.418;2022-09-09T04:11:02;17.30;48.50
22827;DHT22;11580;52.562;13.418;2022-09-09T04:13:31;17.30;48.50
22827;DHT22;11580;52.562;13.418;2022-09-09T04:16:02;17.30;48.50
22827;DHT22;11580;52.562;13.418;2022-09-09T04:18:32;17.30;48.50
22827;DHT22;11580;52.562;13.418;2022-09-09T04:21:00;17.30;48.70
22827;DHT22;11580;52.562;13.418;2022-09-09T04:23:30;17.30;48.50
22827;DHT22;11580;52.562;13.418;2022-09-09T04:25:59;17.30;49.30
22827;DHT22;11580;52.562;13.418;2022-09-09T04:28:29;17.20;48.60
22827;DHT22;11580;52.562;13.418;2022-09-09T04:31:04;17.20;48.60
22827;DHT22;11580;52.562;13.418;2022-09-09T04:33:35;17.20;49.20
22827;DHT22;11580;52.562;13.418;2022-09-09T04:36:02;17.20;48.90
22827;DHT22;11580;52.562;13.418;2022-09-09T04:38:30;17.20;48.80
22827;DHT22;11580;52.562;13.418;2022-09-09T04:40:57;17.40;49.70
22827;DHT22;11580;52.562;13.418;2022-09-09T04:43:24;17.30;49.10
22827;DHT22;11580;52.562;13.418;2022-09-09T04:45:57;17.30;49.10
22827;DHT22;11580;52.562;13.418;2022-09-09T04:48:25;17.30;49.90
22827;DHT22;11580;52.562;13.418;2022-09-09T04:50:59;17.30;49.40
22827;DHT22;11580;52.562;13.418;2022-09-09T04:53:29;17.30;50.00
22827;DHT22;11580;52.562;13.418;2022-09-09T04:56:04;17.40;49.60
22827;DHT22;11580;52.562;13.418;2022-09-09T04:58:37;17.40;50.30
22827;DHT22;11580;52.562;13.418;2022-09-09T05:01:08;17.50;49.80
22827;DHT22;11580;52.562;13.418;2022-09-09T05:03:39;17.50;50.10
22827;DHT22;11580;52.562;13.418;2022-09-09T05:06:12;17.50;50.00
22827;DHT22;11580;52.562;13.418;2022-09-09T05:08:42;17.60;50.40
22827;DHT22;11580;52.562;13.418;2022-09-09T05:11:14;17.60;50.20
22827;DHT22;11580;52.562;13.418;2022-09-09T05:13:43;17.70;50.90
22827;DHT22;11580;52.562;13.418;2022-09-09T05:16:11;17.70;50.40
22827;DHT22;11580;52.562;13.418;2022-09-09T05:18:40;17.70;50.60
22827;DHT22;11580;52.562;13.418;2022-09-09T05:21:10;17.80;50.80
22827;DHT22;11580;52.562;13.418;2022-09-09T05:23:39;17.90;51.00
22827;DHT22;11580;52.562;13.418;2022-09-09T05:26:09;18.00;51.20
22827;DHT22;11580;52.562;13.418;2022-09-09T05:28:39;18.00;51.40
22827;DHT22;11580;52.562;13.418;2022-09-09T05:31:09;18.10;51.40
22827;DHT22;11580;52.562;13.418;2022-09-09T05:33:39;18.20;51.80
22827;DHT22;11580;52.562;13.418;2022-09-09T05:36:11;18.30;51.70
22827;DHT22;11580;52.562;13.418;2022-09-09T05:38:41;18.30;51.70
22827;DHT22;11580;52.562;13.418;2022-09-09T05:41:11;18.40;51.70
22827;DHT22;11580;52.562;13.418;2022-09-09T05:43:41;18.50;51.70
22827;DHT22;11580;52.562;13.418;2022-09-09T05:46:12;18.60;51.70
22827;DHT22;11580;52.562;13.418;2022-09-09T05:48:42;18.60;51.50
22827;DHT22;11580;52.562;13.418;2022-09-09T05:51:15;18.70;51.40
22827;DHT22;11580;52.562;13.418;2022-09-09T05:53:44;18.80;52.00
22827;DHT22;11580;52.562;13.418;2022-09-09T05:56:16;18.90;51.00
22827;DHT22;11580;52.562;13.418;2022-09-09T05:58:45;18.90;50.80
22827;DHT22;11580;52.562;13.418;2022-09-09T06:01:17;19.00;50.70
22827;DHT22;11580;52.562;13.418;2022-09-09T06:03:46;19.00;50.60
22827;DHT22;11580;52.562;13.418;2022-09-09T06:06:18;19.10;50.50
22827;DHT22;11580;52.562;13.418;2022-09-09T06:08:49;19.20;50.50
22827;DHT22;11580;52.562;13.418;2022-09-09T06:11:20;19.20;50.30
22827;DHT22;11580;52.562;13.418;2022-09-09T06:13:49;19.20;50.10
22827;DHT22;11580;52.562;13.418;2022-09-09T06:16:20;19.30;50.20
22827;DHT22;11580;52.562;13.418;2022-09-09T06:18:50;19.30;50.10
22827;DHT22;11580;52.562;13.418;2022-09-09T06:21:23;19.40;49.90
22827;DHT22;11580;52.562;13.418;2022-09-09T06:23:52;19.40;49.90
22827;DHT22;11580;52.562;13.418;2022-09-09T06:26:22;19.50;49.80
22827;DHT22;11580;52.562;13.418;2022-09-09T06:28:52;19.50;49.70
22827;DHT22;11580;52.562;13.418;2022-09-09T06:31:21;19.60;49.90
22827;DHT22;11580;52.562;13.418;2022-09-09T06:33:52;19.70;50.00
22827;DHT22;11580;52.562;13.418;2022-09-09T06:36:25;19.70;49.70
22827;DHT22;11580;52.562;13.418;2022-09-09T06:38:53;19.80;49.60
22827;DHT22;11580;52.562;13.418;2022-09-09T06:41:26;19.90;49.70
22827;DHT22;11580;52.562;13.418;2022-09-09T06:43:55;19.90;49.00
22827;DHT22;11580;52.562;13.418;2022-09-09T06:46:31;20.00;49.10
22827;DHT22;11580;52.562;13.418;2022-09-09T06:49:00;20.00;48.80
22827;DHT22;11580;52.562;13.418;2022-09-09T06:51:31;20.10;49.00
22827;DHT22;11580;52.562;13.418;2022-09-09T06:54:03;20.10;49.00
22827;DHT22;11580;52.562;13.418;2022-09-09T06:56:34;20.10;48.60
22827;DHT22;11580;52.562;13.418;2022-09-09T06:59:08;20.10;48.40
22827;DHT22;11580;52.562;13.418;2022-09-09T07:01:38;20.10;48.50
22827;DHT22;11580;52.562;13.418;2022-09-09T07:04:10;20.20;48.80
22827;DHT22;11580;52.562;13.418;2022-09-09T07:06:43;20.20;48.90
22827;DHT22;11580;52.562;13.418;2022-09-09T07:09:22;20.30;48.70
22827;DHT22;11580;52.562;13.418;2022-09-09T07:11:52;20.30;48.90
22827;DHT22;11580;52.562;13.418;2022-09-09T07:14:20;20.40;48.90
22827;DHT22;11580;52.562;13.418;2022-09-09T07:16:53;20.50;48.80
22827;DHT22;11580;52.562;13.418;2022-09-09T07:19:20;20.60;48.40
22827;DHT22;11580;52.562;13.418;2022-09-09T07:21:52;20.70;48.30
22827;DHT22;11580;52.562;13.418;2022-09-09T07:24:22;20.80;48.00
22827;DHT22;11580;52.562;13.418;2022-09-09T07:26:49;20.90;47.90
22827;DHT22;11580;52.562;13.418;2022-09-09T07:29:18;20.90;47.90
22827;DHT22;11580;52.562;13.418;2022-09-09T07:31:45;21.00;48.00
22827;DHT22;11580;52.562;13.418;2022-09-09T07:34:17;21.10;47.90
22827;DHT22;11580;52.562;13.418;2022-09-09T07:36:45;21.20;47.80
22827;DHT22;11580;52.562;13.418;2022-09-09T07:39:14;21.30;48.40
22827;DHT22;11580;52.562;13.418;2022-09-09T07:41:48;21.40;47.00
22827;DHT22;11580;52.562;13.418;2022-09-09T07:44:21;21.50;47.10
22827;DHT22;11580;52.562;13.418;2022-09-09T07:46:57;21.60;47.10
22827;DHT22;11580;52.562;13.418;2022-09-09T07:49:30;21.70;46.70
22827;DHT22;11580;52.562;13.418;2022-09-09T07:51:59;21.80;46.90
22827;DHT22;11580;52.562;13.418;2022-09-09T07:54:27;22.00;46.90
22827;DHT22;11580;52.562;13.418;2022-09-09T07:56:55;22.10;46.70
22827;DHT22;11580;52.562;13.418;2022-09-09T07:59:26;22.30;46.70
22827;DHT22;11580;52.562;13.418;2022-09-09T08:01:56;22.50;46.40
22827;DHT22;11580;52.562;13.418;2022-09-09T08:04:27;22.60;47.00
22827;DHT22;11580;52.562;13.418;2022-09-09T08:06:56;22.80;45.90
22827;DHT22;11580;52.562;13.418;2022-09-09T08:09:28;23.00;45.40
22827;DHT22;11580;52.562;13.418;2022-09-09T08:12:04;23.30;45.00
22827;DHT22;11580;52.562;13.418;2022-09-09T08:14:33;23.40;45.10
22827;DHT22;11580;52.562;13.418;2022-09-09T08:17:01;23.60;44.60
22827;DHT22;11580;52.562;13.418;2022-09-09T08:19:31;23.80;44.10
22827;DHT22;11580;52.562;13.418;2022-09-09T08:22:00;23.90;43.50
22827;DHT22;11580;52.562;13.418;2022-09-09T08:24:31;24.10;42.80
22827;DHT22;11580;52.562;13.418;2022-09-09T08:26:59;24.20;42.00
22827;DHT22;11580;52.562;13.418;2022-09-09T08:29:27;24.20;42.30
22827;DHT22;11580;52.562;13.418;2022-09-09T08:31:57;24.30;42.50
22827;DHT22;11580;52.562;13.418;2022-09-09T08:34:26;24.30;41.20
22827;DHT22;11580;52.562;13.418;2022-09-09T08:36:56;24.30;41.10
22827;DHT22;11580;52.562;13.418;2022-09-09T08:39:32;24.30;41.00
22827;DHT22;11580;52.562;13.418;2022-09-09T08:45:24;24.20;39.70
22827;DHT22;11580;52.562;13.418;2022-09-09T08:48:10;24.20;39.80
22827;DHT22;11580;52.562;13.418;2022-09-09T08:50:49;24.20;40.90
22827;DHT22;11580;52.562;13.418;2022-09-09T08:53:24;24.20;40.60
22827;DHT22;11580;52.562;13.418;2022-09-09T08:55:59;24.10;40.60
22827;DHT22;11580;52.562;13.418;2022-09-09T08:58:45;24.10;40.10
22827;DHT22;11580;52.562;13.418;2022-09-09T09:01:36;24.10;40.50
22827;DHT22;11580;52.562;13.418;2022-09-09T09:04:34;24.10;40.10
22827;DHT22;11580;52.562;13.418;2022-09-09T09:07:21;24.20;40.20
22827;DHT22;11580;52.562;13.418;2022-09-09T09:10:03;24.20;40.20
22827;DHT22;11580;52.562;13.418;2022-09-09T09:12:42;24.30;40.40
22827;DHT22;11580;52.562;13.418;2022-09-09T09:15:18;24.40;40.40
22827;DHT22;11580;52.562;13.418;2022-09-09T09:17:51;24.50;40.50
22827;DHT22;11580;52.562;13.418;2022-09-09T09:20:25;24.60;41.20
22827;DHT22;11580;52.562;13.418;2022-09-09T09:23:01;24.80;40.30
22827;DHT22;11580;52.562;13.418;2022-09-09T09:25:34;25.00;41.60
22827;DHT22;11580;52.562;13.418;2022-09-09T09:28:13;25.10;40.90
22827;DHT22;11580;52.562;13.418;2022-09-09T09:30:50;25.40;39.70
22827;DHT22;11580;52.562;13.418;2022-09-09T09:33:25;25.60;39.60
22827;DHT22;11580;52.562;13.418;2022-09-09T09:35:56;25.80;39.60
22827;DHT22;11580;52.562;13.418;2022-09-09T09:38:27;26.10;40.20
22827;DHT22;11580;52.562;13.418;2022-09-09T09:40:59;26.30;39.40
22827;DHT22;11580;52.562;13.418;2022-09-09T09:43:30;26.60;39.10
22827;DHT22;11580;52.562;13.418;2022-09-09T09:46:04;26.80;37.70
22827;DHT22;11580;52.562;13.418;2022-09-09T09:48:32;27.10;37.70
22827;DHT22;11580;52.562;13.418;2022-09-09T09:51:02;27.30;37.50
22827;DHT22;11580;52.562;13.418;2022-09-09T09:53:36;27.40;36.20
22827;DHT22;11580;52.562;13.418;2022-09-09T09:56:09;27.50;35.60
22827;DHT22;11580;52.562;13.418;2022-09-09T09:58:50;27.50;35.00
22827;DHT22;11580;52.562;13.418;2022-09-09T10:01:25;27.60;34.40
22827;DHT22;11580;52.562;13.418;2022-09-09T10:03:58;27.60;34.80
22827;DHT22;11580;52.562;13.418;2022-09-09T10:06:31;27.50;34.20
22827;DHT22;11580;52.562;13.418;2022-09-09T10:09:01;27.40;34.80
22827;DHT22;11580;52.562;13.418;2022-09-09T10:11:38;27.40;34.30
22827;DHT22;11580;52.562;13.418;2022-09-09T10:14:20;27.40;34.10
22827;DHT22;11580;52.562;13.418;2022-09-09T10:16:59;27.30;33.70
22827;DHT22;11580;52.562;13.418;2022-09-09T10:19:44;27.20;33.40
22827;DHT22;11580;52.562;13.418;2022-09-09T10:22:28;27.10;34.00
22827;DHT22;11580;52.562;13.418;2022-09-09T10:28:31;27.00;33.70
22827;DHT22;11580;52.562;13.418;2022-09-09T10:31:16;27.00;33.90
22827;DHT22;11580;52.562;13.418;2022-09-09T10:33:51;26.90;34.00
22827;DHT22;11580;52.562;13.418;2022-09-09T10:36:24;26.90;34.90
22827;DHT22;11580;52.562;13.418;2022-09-09T10:38:57;26.90;35.60
22827;DHT22;11580;52.562;13.418;2022-09-09T10:41:42;26.90;33.90
22827;DHT22;11580;52.562;13.418;2022-09-09T10:44:30;27.00;33.70
22827;DHT22;11580;52.562;13.418;2022-09-09T10:47:31;27.00;33.20
22827;DHT22;11580;52.562;13.418;2022-09-09T10:50:23;27.00;33.60
22827;DHT22;11580;52.562;13.418;2022-09-09T10:53:07;27.00;34.20
22827;DHT22;11580;52.562;13.418;2022-09-09T10:55:42;27.10;34.70
22827;DHT22;11580;52.562;13.418;2022-09-09T10:58:14;27.10;34.30
22827;DHT22;11580;52.562;13.418;2022-09-09T11:00:50;27.20;34.70
22827;DHT22;11580;52.562;13.418;2022-09-09T11:03:23;27.20;33.10
22827;DHT22;11580;52.562;13.418;2022-09-09T11:05:57;27.20;33.40
22827;DHT22;11580;52.562;13.418;2022-09-09T11:08:29;27.20;33.60
22827;DHT22;11580;52.562;13.418;2022-09-09T11:11:02;27.30;33.70
22827;DHT22;11580;52.562;13.418;2022-09-09T11:13:36;27.30;33.40
22827;DHT22;11580;52.562;13.418;2022-09-09T11:16:23;27.40;32.60
22827;DHT22;11580;52.562;13.418;2022-09-09T11:19:00;27.40;32.10
22827;DHT22;11580;52.562;13.418;2022-09-09T11:21:37;27.40;32.20
22827;DHT22;11580;52.562;13.418;2022-09-09T11:24:14;27.40;31.90
22827;DHT22;11580;52.562;13.418;2022-09-09T11:26:57;27.40;32.00
22827;DHT22;11580;52.562;13.418;2022-09-09T11:30:00;27.40;31.30
22827;DHT22;11580;52.562;13.418;2022-09-09T11:32:46;27.40;31.60
22827;DHT22;11580;52.562;13.418;2022-09-09T11:35:58;27.40;32.60
22827;DHT22;11580;52.562;13.418;2022-09-09T11:38:42;27.40;31.80
22827;DHT22;11580;52.562;13.418;2022-09-09T11:41:13;27.50;31.60
22827;DHT22;11580;52.562;13.418;2022-09-09T11:43:43;27.50;32.40
22827;DHT22;11580;52.562;13.418;2022-09-09T11:46:13;27.60;32.10
22827;DHT22;11580;52.562;13.418;2022-09-09T11:48:44;27.60;31.80
22827;DHT22;11580;52.562;13.418;2022-09-09T11:51:26;27.60;32.10
22827;DHT22;11580;52.562;13.418;2022-09-09T11:53:56;27.60;30.90
22827;DHT22;11580;52.562;13.418;2022-09-09T11:56:28;27.70;31.80
22827;DHT22;11580;52.562;13.418;2022-09-09T11:59:00;27.70;31.70
22827;DHT22;11580;52.562;13.418;2022-09-09T12:01:40;27.70;31.20
22827;DHT22;11580;52.562;13.418;2022-09-09T12:04:30;27.80;30.30
22827;DHT22;11580;52.562;13.418;2022-09-09T12:07:21;27.80;30.00
22827;DHT22;11580;52.562;13.418;2022-09-09T12:09:58;27.90;30.60
22827;DHT22;11580;52.562;13.418;2022-09-09T12:12:31;27.90;30.10
22827;DHT22;11580;52.562;13.418;2022-09-09T12:15:22;27.90;30.40
22827;DHT22;11580;52.562;13.418;2022-09-09T12:17:56;27.90;30.10
22827;DHT22;11580;52.562;13.418;2022-09-09T12:20:31;27.90;30.10
22827;DHT22;11580;52.562;13.418;2022-09-09T12:23:22;27.90;29.80
22827;DHT22;11580;52.562;13.418;2022-09-09T12:26:19;27.90;30.00
22827;DHT22;11580;52.562;13.418;2022-09-09T12:28:58;27.90;29.50
22827;DHT22;11580;52.562;13.418;2022-09-09T12:31:36;28.00;29.80
22827;DHT22;11580;52.562;13.418;2022-09-09T12:34:17;28.10;30.10
22827;DHT22;11580;52.562;13.418;2022-09-09T12:37:11;28.20;30.30
22827;DHT22;11580;52.562;13.418;2022-09-09T12:39:49;28.40;28.70
22827;DHT22;11580;52.562;13.418;2022-09-09T12:42:20;28.40;28.70
22827;DHT22;11580;52.562;13.418;2022-09-09T12:44:53;28.40;28.80
22827;DHT22;11580;52.562;13.418;2022-09-09T12:47:29;28.40;28.20
22827;DHT22;11580;52.562;13.418;2022-09-09T12:50:03;28.40;28.50
22827;DHT22;11580;52.562;13.418;2022-09-09T12:52:31;28.30;29.00
22827;DHT22;11580;52.562;13.418;2022-09-09T12:55:05;28.30;28.90
22827;DHT22;11580;52.562;13.418;2022-09-09T12:57:36;28.20;28.90
22827;DHT22;11580;52.562;13.418;2022-09-09T13:00:11;28.20;29.00
22827;DHT22;11580;52.562;13.418;2022-09-09T13:02:49;28.10;28.90
22827;DHT22;11580;52.562;13.418;2022-09-09T13:05:20;28.10;28.30
22827;DHT22;11580;52.562;13.418;2022-09-09T13:07:50;28.10;28.70
22827;DHT22;11580;52.562;13.418;2022-09-09T13:10:26;28.10;28.80
22827;DHT22;11580;52.562;13.418;2022-09-09T13:12:55;28.10;27.90
22827;DHT22;11580;52.562;13.418;2022-09-09T13:15:26;28.10;29.40
22827;DHT22;11580;52.562;13.418;2022-09-09T13:17:58;28.10;28.50
22827;DHT22;11580;52.562;13.418;2022-09-09T13:20:28;28.10;28.40
22827;DHT22;11580;52.562;13.418;2022-09-09T13:22:57;28.20;28.60
22827;DHT22;11580;52.562;13.418;2022-09-09T13:25:27;28.20;28.80
22827;DHT22;11580;52.562;13.418;2022-09-09T13:27:58;28.20;28.20
22827;DHT22;11580;52.562;13.418;2022-09-09T13:30:28;28.30;28.20
22827;DHT22;11580;52.562;13.418;2022-09-09T13:33:21;28.30;28.40
22827;DHT22;11580;52.562;13.418;2022-09-09T13:35:51;28.30;27.80
22827;DHT22;11580;52.562;13.418;2022-09-09T13:38:22;28.40;29.00
22827;DHT22;11580;52.562;13.418;2022-09-09T13:40:57;28.40;28.40
22827;DHT22;11580;52.562;13.418;2022-09-09T13:43:28;28.40;27.70
22827;DHT22;11580;52.562;13.418;2022-09-09T13:45:59;28.50;28.30
22827;DHT22;11580;52.562;13.418;2022-09-09T13:48:28;28.50;27.80
22827;DHT22;11580;52.562;13.418;2022-09-09T13:50:57;28.50;27.80
22827;DHT22;11580;52.562;13.418;2022-09-09T13:53:25;28.50;27.60
22827;DHT22;11580;52.562;13.418;2022-09-09T13:55:55;28.60;27.60
22827;DHT22;11580;52.562;13.418;2022-09-09T13:58:23;28.60;27.10
22827;DHT22;11580;52.562;13.418;2022-09-09T14:00:51;28.60;27.40
22827;DHT22;11580;52.562;13.418;2022-09-09T14:03:19;28.70;27.30
22827;DHT22;11580;52.562;13.418;2022-09-09T14:05:47;28.70;27.50
22827;DHT22;11580;52.562;13.418;2022-09-09T14:08:26;28.90;27.40
22827;DHT22;11580;52.562;13.418;2022-09-09T14:11:03;28.90;26.40
22827;DHT22;11580;52.562;13.418;2022-09-09T14:13:31;29.10;26.80
22827;DHT22;11580;52.562;13.418;2022-09-09T14:15:58;29.10;27.20
22827;DHT22;11580;52.562;13.418;2022-09-09T14:18:25;29.10;26.60
22827;DHT22;11580;52.562;13.418;2022-09-09T14:20:52;29.10;26.50
22827;DHT22;11580;52.562;13.418;2022-09-09T14:23:19;29.10;26.60
22827;DHT22;11580;52.562;13.418;2022-09-09T14:25:47;29.10;26.50
22827;DHT22;11580;52.562;13.418;2022-09-09T14:28:16;29.10;26.60
22827;DHT22;11580;52.562;13.418;2022-09-09T14:30:44;29.10;26.30
22827;DHT22;11580;52.562;13.418;2022-09-09T14:33:13;29.10;26.50
22827;DHT22;11580;52.562;13.418;2022-09-09T14:35:43;29.00;26.50
22827;DHT22;11580;52.562;13.418;2022-09-09T14:38:10;29.00;26.70
22827;DHT22;11580;52.562;13.418;2022-09-09T14:40:38;29.00;26.50
22827;DHT22;11580;52.562;13.418;2022-09-09T14:43:05;29.00;26.60
22827;DHT22;11580;52.562;13.418;2022-09-09T14:45:35;29.00;26.50
22827;DHT22;11580;52.562;13.418;2022-09-09T14:48:03;28.90;25.90
22827;DHT22;11580;52.562;13.418;2022-09-09T14:50:31;28.90;26.30
22827;DHT22;11580;52.562;13.418;2022-09-09T14:52:58;28.80;26.10
22827;DHT22;11580;52.562;13.418;2022-09-09T14:55:25;28.80;26.10
22827;DHT22;11580;52.562;13.418;2022-09-09T14:57:54;28.80;26.00
22827;DHT22;11580;52.562;13.418;2022-09-09T15:00:21;28.70;25.90
22827;DHT22;11580;52.562;13.418;2022-09-09T15:02:52;28.70;26.00
22827;DHT22;11580;52.562;13.418;2022-09-09T15:05:19;28.70;25.50
22827;DHT22;11580;52.562;13.418;2022-09-09T15:07:47;28.60;25.70
22827;DHT22;11580;52.562;13.418;2022-09-09T15:10:15;28.50;26.30
22827;DHT22;11580;52.562;13.418;2022-09-09T15:12:43;28.40;25.80
22827;DHT22;11580;52.562;13.418;2022-09-09T15:15:10;28.40;25.80
22827;DHT22;11580;52.562;13.418;2022-09-09T15:17:38;28.30;25.90
22827;DHT22;11580;52.562;13.418;2022-09-09T15:20:08;28.20;26.10
22827;DHT22;11580;52.562;13.418;2022-09-09T15:22:36;28.10;26.10
22827;DHT22;11580;52.562;13.418;2022-09-09T15:25:04;28.10;26.50
22827;DHT22;11580;52.562;13.418;2022-09-09T15:27:33;28.00;26.50
22827;DHT22;11580;52.562;13.418;2022-09-09T15:30:01;28.00;26.70
22827;DHT22;11580;52.562;13.418;2022-09-09T15:32:28;28.00;26.60
22827;DHT22;11580;52.562;13.418;2022-09-09T15:34:55;28.00;26.70
22827;DHT22;11580;52.562;13.418;2022-09-09T15:37:24;28.00;26.60
22827;DHT22;11580;52.562;13.418;2022-09-09T15:39:51;28.10;26.50
22827;DHT22;11580;52.562;13.418;2022-09-09T15:42:18;28.10;26.40
22827;DHT22;11580;52.562;13.418;2022-09-09T15:44:45;28.10;26.10
22827;DHT22;11580;52.562;13.418;2022-09-09T15:47:13;28.10;26.00
22827;DHT22;11580;52.562;13.418;2022-09-09T15:49:40;28.10;26.00
22827;DHT22;11580;52.562;13.418;2022-09-09T15:52:09;28.00;26.50
22827;DHT22;11580;52.562;13.418;2022-09-09T15:54:38;27.90;25.80
22827;DHT22;11580;52.562;13.418;2022-09-09T15:57:07;27.80;25.70
22827;DHT22;11580;52.562;13.418;2022-09-09T15:59:38;27.60;25.70
22827;DHT22;11580;52.562;13.418;2022-09-09T16:02:06;27.50;25.80
22827;DHT22;11580;52.562;13.418;2022-09-09T16:04:33;27.30;26.00